Time;durP1;ratioP1;P1;durP2;ratioP2;P2;SDS_P1;SDS_P2;PMS_P1;PMS_P2;Temp;Humidity;BMP_temperature;BMP_pressure;BME280_temperature;BME280_humidity;BME280_pressure;Samples;Min_cycle;Max_cycle;Signal;HPM_P1;HPM_P2
2022/10/05 00:00:04;;;;;;;6.13;1.48;;;;;;;13.22;75.71;101110.41;2067814;28;20042;-71
2022/10/05 00:01:31;;;;;;;4.88;1.55;;;;;;;13.19;75.58;101118.25;2080641;28;20045;-71
2022/10/05 00:02:34;;;;;;;5.68;1.75;;;;;;;13.18;75.62;101116.66;2090295;28;20032;-70
2022/10/05 00:03:41;;;;;;;5.30;1.50;;;;;;;13.19;75.56;101113.66;2081225;28;20053;-70
2022/10/05 00:04:43;;;;;;;7.70;1.75;;;;;;;13.19;75.56;101116.34;2065830;28;20034;-70
2022/10/05 00:05:48;;;;;;;4.10;1.42;;;;;;;13.20;75.55;101123.38;2065993;28;20053;-70
2022/10/05 00:06:59;;;;;;;;;;;;;;;13.20;75.71;101126.06;2081836;28;20049;-71
2022/10/05 00:08:07;;;;;;;;;;;;;;;13.17;75.96;101123.94;2083085;28;19928;-71
2022/10/05 00:09:20;;;;;;;10.68;2.10;;;;;;;13.16;75.94;101124.22;2090271;28;19921;-71
2022/10/05 00:10:25;;;;;;;4.88;1.60;;;;;;;13.16;75.93;101121.53;2081803;28;20049;-71
2022/10/05 00:11:31;;;;;;;4.28;1.60;;;;;;;13.15;75.84;101131.53;2065576;28;20046;-71
2022/10/05 00:12:34;;;;;;;8.90;1.67;;;;;;;13.14;75.94;101129.88;2065887;28;20136;-71
2022/10/05 00:13:36;;;;;;;6.40;1.83;;;;;;;13.13;76.06;101124.78;2074306;28;20049;-71
2022/10/05 00:14:42;;;;;;;7.57;1.88;;;;;;;13.14;76.05;101134.47;2074555;28;20469;-71
2022/10/05 00:15:48;;;;;;;5.03;1.60;;;;;;;13.12;75.76;101126.69;2073324;28;20057;-71
2022/10/05 00:16:55;;;;;;;6.57;1.58;;;;;;;13.13;75.96;101122.88;2073482;28;20046;-71
2022/10/05 00:18:01;;;;;;;7.85;1.85;;;;;;;13.14;76.16;101110.19;2065162;28;20034;-71
2022/10/05 00:19:14;;;;;;;3.83;1.60;;;;;;;13.15;76.16;101099.13;2057370;28;20050;-71
2022/10/05 00:20:41;;;;;;;4.85;1.60;;;;;;;13.15;75.85;101103.72;2073698;28;20478;-71
2022/10/05 00:21:43;;;;;;;5.78;1.80;;;;;;;13.17;76.09;101099.63;2065328;28;20038;-70
2022/10/05 00:22:46;;;;;;;4.57;1.95;;;;;;;13.18;75.99;101090.47;2065918;28;20034;-70
2022/10/05 00:23:52;;;;;;;10.52;2.38;;;;;;;13.18;75.82;101087.75;2073660;28;20041;-70
2022/10/05 00:25:02;;;;;;;4.20;1.63;;;;;;;13.18;76.12;101087.75;2066011;28;20042;-71
2022/10/05 00:26:16;;;;;;;5.63;2.05;;;;;;;13.18;75.98;101084.25;2072740;28;20045;-71
2022/10/05 00:27:19;;;;;;;8.60;2.10;;;;;;;13.19;75.86;101086.66;2073700;28;20034;-71
2022/10/05 00:28:29;;;;;;;6.80;1.83;;;;;;;13.19;76.01;101086.66;2065234;28;20049;-71
2022/10/05 00:29:33;;;;;;;6.95;1.92;;;;;;;13.21;75.69;101089.09;2060080;28;20113;-72
2022/10/05 00:30:41;;;;;;;6.80;1.90;;;;;;;13.20;75.94;101099.06;2066283;28;20034;-71
2022/10/05 00:31:47;;;;;;;10.13;2.08;;;;;;;13.19;75.91;101089.34;2074211;28;20374;-70
2022/10/05 00:32:51;;;;;;;8.05;2.05;;;;;;;13.19;75.76;101097.47;2065480;28;20038;-71
2022/10/05 00:33:55;;;;;;;7.55;1.90;;;;;;;13.20;75.75;101107.16;2065834;28;20051;-71
2022/10/05 00:35:03;;;;;;;8.80;2.15;;;;;;;13.20;75.72;101099.06;2073260;28;20052;-71
2022/10/05 00:36:07;;;;;;;6.43;1.90;;;;;;;13.20;75.76;101090.97;2073666;28;20490;-71
2022/10/05 00:37:12;;;;;;;6.40;1.63;;;;;;;13.22;76.06;101090.69;2073108;28;20046;-71
2022/10/05 00:38:17;;;;;;;7.65;1.65;;;;;;;13.22;75.81;101082.59;2074314;28;20367;-71
2022/10/05 00:39:24;;;;;;;5.50;1.95;;;;;;;13.25;75.84;101086.66;2065304;28;20042;-71
2022/10/05 00:40:35;;;;;;;7.05;1.90;;;;;;;13.25;75.98;101086.66;2066818;28;20042;-70
2022/10/05 00:41:45;;;;;;;8.57;2.00;;;;;;;13.26;75.77;101088.25;2065459;28;20041;-71
2022/10/05 00:43:02;;;;;;;8.13;2.20;;;;;;;13.27;75.71;101092.56;2058940;28;20043;-71
2022/10/05 00:44:04;;;;;;;6.80;1.70;;;;;;;13.27;75.76;101095.25;2069608;28;20034;-71
2022/10/05 00:45:19;;;;;;;5.25;2.05;;;;;;;13.25;75.77;101092.06;2073416;28;20709;-71
2022/10/05 00:46:36;;;;;;;6.50;1.83;;;;;;;13.25;75.72;101092.06;2073110;28;20049;-71
2022/10/05 00:48:01;;;;;;;5.97;2.00;;;;;;;13.25;75.70;101087.47;2065136;28;20506;-70
2022/10/05 00:49:22;;;;;;;5.68;2.20;;;;;;;13.26;75.89;101080.97;2055788;28;20694;-71
2022/10/05 00:50:37;;;;;;;5.45;1.90;;;;;;;13.26;75.72;101080.16;2076176;28;20117;-71
2022/10/05 00:51:51;;;;;;;4.80;1.75;;;;;;;13.25;75.81;101079.34;2072669;28;20581;-70
2022/10/05 00:53:41;;;;;;;10.13;1.98;;;;;;;13.26;75.66;101072.06;2067057;28;20557;-71
2022/10/05 00:54:59;;;;;;;8.90;3.10;;;;;;;13.26;75.50;101077.47;2047710;29;20047;-72
2022/10/05 00:56:06;;;;;;;8.52;2.00;;;;;;;13.25;75.79;101073.16;2044493;29;20047;-72
2022/10/05 00:57:49;;;;;;;9.13;1.90;;;;;;;13.27;75.58;101068.25;2054065;28;20050;-72
2022/10/05 00:59:05;;;;;;;7.15;1.90;;;;;;;13.25;75.63;101073.16;2076022;28;20049;-72
2022/10/05 01:00:14;;;;;;;7.75;1.95;;;;;;;13.23;75.42;101068.78;2065318;28;20038;-72
2022/10/05 01:01:38;;;;;;;4.75;1.90;;;;;;;13.23;75.67;101057.19;2058151;28;20070;-72
2022/10/05 01:03:08;;;;;;;10.70;2.25;;;;;;;13.23;75.75;101044.50;2069562;28;20394;-71
2022/10/05 01:04:24;;;;;;;4.90;1.83;;;;;;;13.23;75.75;101041.78;2073422;28;20042;-72
2022/10/05 01:05:41;;;;;;;9.45;2.58;;;;;;;13.25;75.75;101046.16;2075496;28;20044;-71
2022/10/05 01:07:06;;;;;;;6.53;2.00;;;;;;;13.25;75.75;101048.84;2065211;28;20053;-71
2022/10/05 01:08:35;;;;;;;5.25;2.10;;;;;;;13.25;75.71;101054.25;2063072;28;20034;-72
2022/10/05 01:09:55;;;;;;;5.47;2.00;;;;;;;13.25;75.68;101049.66;2060645;28;20041;-71
2022/10/05 01:11:17;;;;;;;5.43;1.85;;;;;;;13.23;75.82;101051.78;2071832;28;20048;-72
2022/10/05 01:12:48;;;;;;;8.15;2.15;;;;;;;13.23;75.74;101046.38;2089944;28;20053;-72
2022/10/05 01:13:52;;;;;;;4.88;2.08;;;;;;;13.23;75.85;101052.59;2090438;28;20045;-71
2022/10/05 01:15:16;;;;;;;4.38;1.83;;;;;;;13.23;75.83;101051.78;2089517;28;20465;-72
2022/10/05 01:16:54;;;;;;;5.40;1.92;;;;;;;13.22;75.62;101047.50;2067977;28;20045;-72
2022/10/05 01:18:14;;;;;;;6.68;1.88;;;;;;;13.21;75.56;101048.59;2080406;28;20040;-72
2022/10/05 01:19:20;;;;;;;4.80;1.73;;;;;;;13.20;75.66;101046.97;2076161;28;20037;-72
2022/10/05 01:20:38;;;;;;;6.43;1.75;;;;;;;13.19;75.83;101046.16;2066080;28;20426;-72
2022/10/05 01:22:03;;;;;;;10.93;2.03;;;;;;;13.19;75.67;101056.97;2086625;28;20045;-72
2022/10/05 01:23:58;;;;;;;5.38;2.03;;;;;;;13.17;76.00;101053.72;2081066;28;20486;-72
2022/10/05 01:25:19;;;;;;;10.43;1.83;;;;;;;13.17;76.03;101061.03;2063067;28;20038;-72
2022/10/05 01:26:39;;;;;;;7.75;2.20;;;;;;;13.16;75.83;101056.72;2048501;28;20051;-71
2022/10/05 01:27:48;;;;;;;7.22;2.03;;;;;;;13.13;76.14;101058.09;2059421;28;20046;-72
2022/10/05 01:28:49;;;;;;;5.43;2.35;;;;;;;13.13;75.98;101052.69;2056795;28;20419;-71
2022/10/05 01:30:03;;;;;;;6.70;2.35;;;;;;;13.13;76.16;101050.00;2057145;28;20046;-71
2022/10/05 01:31:23;;;;;;;3.42;2.00;;;;;;;13.12;76.22;101044.88;2072265;28;20033;-71
2022/10/05 01:32:53;;;;;;;8.35;1.95;;;;;;;13.14;76.47;101048.88;2070275;28;20060;-72
2022/10/05 01:34:08;;;;;;;10.52;3.17;;;;;;;13.15;76.01;101039.72;2088614;28;20041;-72
2022/10/05 01:35:25;;;;;;;7.30;2.35;;;;;;;13.16;76.32;101041.31;2080565;28;20370;-72
2022/10/05 01:36:35;;;;;;;5.00;2.13;;;;;;;13.17;76.36;101047.53;2075472;28;20045;-71
2022/10/05 01:37:44;;;;;;;5.90;2.05;;;;;;;13.16;76.14;101037.81;2066188;28;20502;-72
2022/10/05 01:39:15;;;;;;;6.85;2.17;;;;;;;13.16;76.36;101035.13;2074357;28;20060;-71
2022/10/05 01:40:24;;;;;;;6.47;2.20;;;;;;;13.16;76.45;101045.94;2073230;28;20073;-71
2022/10/05 01:41:38;;;;;;;6.57;2.00;;;;;;;13.16;76.24;101035.13;2058264;28;20457;-72
2022/10/05 01:43:11;;;;;;;7.15;1.88;;;;;;;13.15;76.46;101042.41;2053437;28;20047;-72
2022/10/05 01:44:31;;;;;;;8.23;2.08;;;;;;;13.17;76.34;101042.94;2064895;28;20073;-71
2022/10/05 01:45:39;;;;;;;5.18;1.85;;;;;;;13.18;76.23;101041.06;2059555;28;20050;-71
2022/10/05 01:46:49;;;;;;;6.00;2.95;;;;;;;13.18;76.44;101038.34;2058171;28;20398;-71
2022/10/05 01:48:12;;;;;;;8.25;1.90;;;;;;;13.16;76.34;101041.31;2066732;28;20061;-71
2022/10/05 01:49:34;;;;;;;7.25;1.83;;;;;;;13.16;76.34;101041.31;2064512;28;20038;-71
2022/10/05 01:50:46;;;;;;;6.90;2.20;;;;;;;13.16;76.51;101041.31;2062482;28;20478;-71
2022/10/05 01:52:00;;;;;;;7.30;2.10;;;;;;;13.17;76.46;101042.13;2057784;28;20042;-71
2022/10/05 01:53:33;;;;;;;4.80;2.00;;;;;;;13.17;76.29;101039.44;2052776;28;20042;-70
2022/10/05 01:54:57;;;;;;;6.68;2.13;;;;;;;13.16;76.48;101041.31;2057403;28;20061;-71
2022/10/05 01:56:14;;;;;;;4.95;1.85;;;;;;;13.16;76.33;101029.72;2056441;28;20047;-70
2022/10/05 01:57:27;;;;;;;6.43;2.13;;;;;;;13.16;76.30;101027.03;2067713;28;20057;-71
2022/10/05 01:58:35;;;;;;;3.72;2.10;;;;;;;13.15;76.50;101026.22;2074485;28;20109;-71
2022/10/05 01:59:46;;;;;;;5.60;1.85;;;;;;;13.14;76.38;101021.91;2073203;28;20037;-71
2022/10/05 02:01:08;;;;;;;7.30;2.05;;;;;;;13.14;76.59;101024.59;2065925;28;20050;-70
2022/10/05 02:02:21;;;;;;;11.32;1.80;;;;;;;13.13;76.17;101017.59;2067626;28;20049;-71
2022/10/05 02:03:39;;;;;;;7.03;2.10;;;;;;;13.11;76.58;101019.75;2066954;28;20046;-71
2022/10/05 02:05:01;;;;;;;7.68;1.90;;;;;;;13.14;76.52;101015.69;2066254;28;20526;-70
2022/10/05 02:06:18;;;;;;;5.15;1.95;;;;;;;13.12;76.57;101016.00;2059665;28;20039;-71
2022/10/05 02:07:32;;;;;;;7.78;2.50;;;;;;;13.12;76.51;101018.69;2062049;28;20057;-71
2022/10/05 02:08:53;;;;;;;10.38;2.00;;;;;;;13.13;76.39;101009.50;2066188;28;20109;-71
2022/10/05 02:10:08;;;;;;;7.13;2.42;;;;;;;13.12;76.26;101020.59;2067967;28;20045;-72
2022/10/05 02:11:14;;;;;;;5.93;2.08;;;;;;;13.11;76.61;101017.06;2066671;28;20056;-72
2022/10/05 02:12:23;;;;;;;5.93;1.95;;;;;;;13.10;76.52;101020.84;2073263;28;20041;-72
2022/10/05 02:13:57;;;;;;;8.25;2.13;;;;;;;13.09;76.66;101019.25;2073163;28;20038;-72
2022/10/05 02:15:18;;;;;;;5.93;2.35;;;;;;;13.09;76.42;101007.66;2068549;28;20042;-72
2022/10/05 02:17:00;;;;;;;10.10;2.33;;;;;;;13.10;76.43;100999.25;2067038;28;20047;-73
2022/10/05 02:18:31;;;;;;;4.03;2.00;;;;;;;13.09;76.64;100997.66;2046103;29;20395;-72
2022/10/05 02:19:44;;;;;;;6.00;1.83;;;;;;;13.08;76.50;100990.66;2072171;28;20046;-72
2022/10/05 02:20:54;;;;;;;8.43;2.00;;;;;;;13.10;76.59;100983.06;2064865;28;20041;-71
2022/10/05 02:22:05;;;;;;;8.15;2.50;;;;;;;13.11;76.39;100976.56;2066057;28;20042;-71
2022/10/05 02:23:13;;;;;;;8.25;2.35;;;;;;;13.10;76.41;100971.47;2064851;28;20390;-72
2022/10/05 02:24:24;;;;;;;4.75;2.35;;;;;;;13.09;76.57;100980.66;2059011;28;20051;-71
2022/10/05 02:25:35;;;;;;;7.10;2.38;;;;;;;13.08;76.33;100979.88;2058245;28;20356;-71
2022/10/05 02:26:43;;;;;;;10.35;2.40;;;;;;;13.10;76.42;100977.66;2066366;28;20057;-71
2022/10/05 02:28:03;;;;;;;11.02;2.15;;;;;;;13.10;76.43;100972.25;2073128;28;20049;-72
2022/10/05 02:29:10;;;;;;;9.45;2.50;;;;;;;13.09;76.45;100972.56;2066114;28;20042;-71
2022/10/05 02:30:18;;;;;;;6.43;2.20;;;;;;;13.09;76.30;100972.56;2073055;28;20041;-72
2022/10/05 02:32:08;;;;;;;5.70;2.22;;;;;;;13.07;76.33;100964.72;2073469;28;20062;-72
2022/10/05 02:33:32;;;;;;;4.38;1.90;;;;;;;13.07;76.40;100961.22;2072504;28;20053;-72
2022/10/05 02:34:41;;;;;;;4.60;1.90;;;;;;;13.06;76.22;100963.13;2052438;28;20497;-71
2022/10/05 02:36:13;;;;;;;5.93;2.30;;;;;;;13.04;76.35;100962.59;2049974;28;20034;-72
2022/10/05 02:38:02;;;;;;;5.40;1.90;;;;;;;13.02;76.44;100961.28;2061035;28;20045;-72
2022/10/05 02:39:26;;;;;;;8.95;2.10;;;;;;;13.03;76.23;100969.09;2047241;29;20043;-72
2022/10/05 02:40:48;;;;;;;5.10;1.85;;;;;;;13.03;76.11;100961.00;2041242;29;20162;-71
2022/10/05 02:42:17;;;;;;;5.20;2.00;;;;;;;13.02;76.33;100953.19;2074341;28;20045;-72
2022/10/05 02:43:52;;;;;;;4.15;2.10;;;;;;;13.00;76.12;100958.88;2063208;28;20483;-72
2022/10/05 02:44:58;;;;;;;5.40;1.90;;;;;;;13.01;76.27;100957.78;2065820;28;20498;-71
2022/10/05 02:46:20;;;;;;;5.60;2.22;;;;;;;13.01;76.26;100957.78;2073072;28;20050;-71
2022/10/05 02:47:40;;;;;;;8.23;2.10;;;;;;;13.03;75.94;100963.69;2061241;28;20046;-71
2022/10/05 02:48:56;;;;;;;6.35;2.03;;;;;;;13.02;76.08;100964.81;2054297;28;20038;-71
2022/10/05 02:50:32;;;;;;;6.65;2.10;;;;;;;12.99;75.89;100952.69;2060255;28;20046;-71
2022/10/05 02:52:00;;;;;;;5.82;2.00;;;;;;;12.98;76.39;100956.44;2063212;28;20050;-71
2022/10/05 02:53:20;;;;;;;7.10;2.22;;;;;;;12.97;75.87;100956.75;2064934;28;20049;-71
2022/10/05 02:54:42;;;;;;;;;;;;;;;12.99;75.91;100952.69;2061216;28;20043;-72
2022/10/05 02:56:19;;;;;;;4.70;1.77;;;;;;;12.98;75.98;100951.03;2063946;28;19921;-71
2022/10/05 02:57:24;;;;;;;11.45;2.20;;;;;;;12.97;75.78;100938.66;2063208;28;20034;-71
2022/10/05 02:58:47;;;;;;;5.97;1.92;;;;;;;12.96;75.58;100947.03;2051938;28;20046;-70
2022/10/05 03:00:15;;;;;;;3.72;2.03;;;;;;;12.95;75.75;100942.72;2069581;28;20042;-70
2022/10/05 03:01:56;;;;;;;3.67;2.00;;;;;;;12.95;75.64;100942.72;2074460;28;20042;-71
2022/10/05 03:03:31;;;;;;;8.55;2.13;;;;;;;12.91;75.65;100942.47;2071878;28;20049;-70
2022/10/05 03:05:11;;;;;;;7.72;2.13;;;;;;;12.92;75.84;100943.28;2070781;28;20042;-71
2022/10/05 03:06:26;;;;;;;4.57;1.90;;;;;;;12.91;75.72;100944.38;2071746;28;20053;-70
2022/10/05 03:07:45;;;;;;;4.10;1.98;;;;;;;12.90;75.70;100940.09;2068133;28;20053;-70
2022/10/05 03:09:06;;;;;;;7.82;2.50;;;;;;;12.88;75.66;100945.75;2068821;28;20506;-70
2022/10/05 03:10:49;;;;;;;7.78;1.90;;;;;;;12.85;75.89;100943.63;2069196;28;20045;-71
2022/10/05 03:12:08;;;;;;;7.20;2.00;;;;;;;12.84;75.63;100952.00;2070759;28;20041;-70
2022/10/05 03:13:22;;;;;;;8.55;1.92;;;;;;;12.85;75.91;100950.91;2067998;28;20042;-70
2022/10/05 03:14:46;;;;;;;9.85;2.50;;;;;;;12.85;75.78;100951.72;2068142;28;20038;-70
2022/10/05 03:16:03;;;;;;;3.67;1.83;;;;;;;12.83;75.78;100950.38;2069247;28;20494;-70
2022/10/05 03:17:39;;;;;;;6.05;2.15;;;;;;;12.84;75.91;100947.41;2075996;28;20049;-70
2022/10/05 03:18:46;;;;;;;8.45;2.40;;;;;;;12.86;75.84;100941.72;2063531;28;20045;-70
2022/10/05 03:20:12;;;;;;;3.50;1.80;;;;;;;12.84;75.88;100944.72;2067212;28;20050;-70
2022/10/05 03:21:47;;;;;;;7.35;2.75;;;;;;;12.84;75.76;100946.63;2058220;28;20499;-70
2022/10/05 03:22:54;;;;;;;8.02;2.42;;;;;;;12.82;75.64;100941.50;2049414;28;20047;-70
2022/10/05 03:24:36;;;;;;;6.32;2.92;;;;;;;12.83;75.81;100940.41;2067723;28;20065;-70
2022/10/05 03:26:00;;;;;;;7.07;2.15;;;;;;;12.83;75.86;100940.41;2074092;28;20044;-71
2022/10/05 03:27:06;;;;;;;5.95;2.03;;;;;;;12.83;75.50;100940.41;2077886;28;20049;-73
2022/10/05 03:28:29;;;;;;;4.35;2.03;;;;;;;12.82;75.67;100935.28;2058873;28;20034;-72
2022/10/05 03:29:42;;;;;;;4.20;2.05;;;;;;;12.79;75.58;100933.97;2055397;28;20031;-72
2022/10/05 03:31:04;;;;;;;5.65;2.00;;;;;;;12.80;75.74;100937.47;2054684;28;20043;-72
2022/10/05 03:32:41;;;;;;;8.63;2.50;;;;;;;12.79;75.76;100938.56;2080213;28;20500;-72
2022/10/05 03:34:06;;;;;;;6.78;2.03;;;;;;;12.73;75.81;100943.19;2074590;28;20053;-72
2022/10/05 03:35:21;;;;;;;5.78;2.40;;;;;;;12.74;75.60;100947.50;2076945;28;20041;-71
2022/10/05 03:36:40;;;;;;;9.13;2.47;;;;;;;12.73;75.79;100935.91;2059736;28;20046;-72
2022/10/05 03:38:07;;;;;;;4.47;2.30;;;;;;;12.74;75.85;100937.53;2078442;28;20033;-72
2022/10/05 03:39:40;;;;;;;11.50;3.60;;;;;;;12.75;76.11;100944.53;2066055;28;20445;-71
2022/10/05 03:41:01;;;;;;;9.00;3.20;;;;;;;12.78;75.77;100942.34;2063944;28;20045;-71
2022/10/05 03:42:32;;;;;;;5.57;2.35;;;;;;;12.76;75.69;100951.50;2063904;28;20045;-71
2022/10/05 03:43:53;;;;;;;2.90;1.90;;;;;;;12.73;76.11;100952.06;2065866;28;20038;-71
2022/10/05 03:45:28;;;;;;;8.93;2.70;;;;;;;12.74;75.58;100950.22;2073766;28;20041;-71
2022/10/05 03:46:49;;;;;;;6.22;2.40;;;;;;;12.73;75.77;100951.28;2069858;28;20033;-71
2022/10/05 03:48:06;;;;;;;4.35;2.65;;;;;;;12.72;75.75;100944.28;2066034;28;20042;-72
2022/10/05 03:49:27;;;;;;;3.25;2.30;;;;;;;12.72;75.74;100950.47;2070894;28;20458;-72
2022/10/05 03:50:44;;;;;;;6.18;2.30;;;;;;;12.75;75.57;100944.53;2074187;28;20038;-72
2022/10/05 03:52:01;;;;;;;8.27;2.45;;;;;;;12.74;75.50;100942.91;2076312;28;20034;-73
2022/10/05 03:53:15;;;;;;;8.40;2.40;;;;;;;12.74;75.52;100942.91;2065988;28;20049;-72
2022/10/05 03:54:34;;;;;;;4.70;2.38;;;;;;;12.75;75.54;100938.31;2052812;28;20062;-72
2022/10/05 03:55:41;;;;;;;8.55;2.60;;;;;;;12.75;75.54;100944.53;2052322;28;20537;-72
2022/10/05 03:57:26;;;;;;;4.70;1.92;;;;;;;12.75;75.59;100938.31;2059942;28;20042;-70
2022/10/05 03:58:33;;;;;;;6.97;2.25;;;;;;;12.73;75.40;100935.91;2049450;29;20050;-72
2022/10/05 04:00:04;;;;;;;11.15;2.33;;;;;;;12.74;75.35;100932.13;2049199;29;20058;-71
2022/10/05 04:01:42;;;;;;;5.30;2.05;;;;;;;12.74;75.59;100932.13;2071465;28;20065;-71
2022/10/05 04:03:48;;;;;;;8.80;2.30;;;;;;;12.72;75.46;100936.19;2073819;28;20075;-71
2022/10/05 04:05:00;;;;;;;14.07;2.97;;;;;;;12.72;75.31;100936.19;2062664;28;20434;-70
2022/10/05 04:06:34;;;;;;;6.03;2.03;;;;;;;12.71;75.33;100935.38;2065546;28;20042;-70
2022/10/05 04:07:49;;;;;;;8.50;2.17;;;;;;;12.71;75.36;100924.59;2072434;28;20060;-70
2022/10/05 04:09:12;;;;;;;6.60;2.60;;;;;;;12.71;75.17;100927.28;2076825;28;20057;-70
2022/10/05 04:10:34;;;;;;;5.43;2.30;;;;;;;12.70;75.24;100924.88;2076723;28;20050;-70
2022/10/05 04:11:48;;;;;;;9.30;2.28;;;;;;;12.70;75.30;100928.41;2079373;28;20052;-71
2022/10/05 04:13:03;;;;;;;9.60;2.30;;;;;;;12.68;75.29;100925.16;2067129;28;20054;-71
2022/10/05 04:14:24;;;;;;;6.25;2.28;;;;;;;12.67;75.25;100920.88;2075900;28;20044;-71
2022/10/05 04:15:32;;;;;;;7.20;2.33;;;;;;;12.66;75.24;100919.22;2072433;28;20074;-71
2022/10/05 04:16:44;;;;;;;5.55;2.47;;;;;;;12.60;75.82;100909.56;2073064;28;20768;-72
2022/10/05 04:17:53;;;;;;;4.35;2.20;;;;;;;12.52;76.57;100918.28;2073391;28;20037;-71
2022/10/05 04:19:13;;;;;;;5.55;2.38;;;;;;;12.59;75.83;100916.06;2057638;28;20034;-70
2022/10/05 04:20:28;;;;;;;8.65;2.83;;;;;;;12.60;75.78;100909.56;2069829;28;20053;-71
2022/10/05 04:21:40;;;;;;;5.55;2.55;;;;;;;12.59;75.69;100910.69;2065942;28;20514;-71
2022/10/05 04:23:10;;;;;;;9.43;2.70;;;;;;;12.58;75.65;100911.78;2059068;28;20038;-71
2022/10/05 04:24:28;;;;;;;8.95;2.88;;;;;;;12.58;75.55;100914.47;2063917;28;20502;-71
2022/10/05 04:25:42;;;;;;;6.47;2.50;;;;;;;12.57;75.50;100909.34;2066492;28;20046;-71
2022/10/05 04:26:55;;;;;;;5.57;2.33;;;;;;;12.58;75.44;100919.88;2074097;28;20420;-70
2022/10/05 04:28:25;;;;;;;5.32;2.40;;;;;;;12.53;75.70;100918.00;2065308;28;20045;-71
2022/10/05 04:29:49;;;;;;;6.78;2.80;;;;;;;12.52;75.58;100912.91;2071674;28;20045;-71
2022/10/05 04:30:53;;;;;;;5.18;2.10;;;;;;;12.53;75.57;100907.22;2075215;28;20038;-71
2022/10/05 04:32:13;;;;;;;12.20;2.20;;;;;;;12.52;75.50;100912.91;2056317;28;20038;-71
2022/10/05 04:33:58;;;;;;;7.85;2.47;;;;;;;12.51;75.51;100913.97;2054212;28;20055;-71
2022/10/05 04:35:21;;;;;;;7.85;2.88;;;;;;;12.50;75.47;100906.97;2069929;28;20036;-71
2022/10/05 04:36:39;;;;;;;7.28;2.85;;;;;;;12.48;75.57;100911.84;2070617;28;20053;-71
2022/10/05 04:37:58;;;;;;;10.23;2.55;;;;;;;12.47;75.73;100910.22;2074866;28;20045;-70
2022/10/05 04:39:37;;;;;;;5.85;2.92;;;;;;;12.48;75.98;100906.44;2082189;28;20045;-72
2022/10/05 04:40:56;;;;;;;7.93;2.60;;;;;;;12.52;75.74;100896.72;2080439;28;20044;-71
2022/10/05 04:42:18;;;;;;;5.55;2.75;;;;;;;12.54;75.90;100891.81;2083297;28;20028;-70
2022/10/05 04:43:46;;;;;;;7.38;3.10;;;;;;;12.54;75.84;100894.53;2071713;28;20524;-71
2022/10/05 04:45:18;;;;;;;6.88;2.60;;;;;;;12.50;75.67;100888.91;2068352;28;20049;-71
2022/10/05 04:46:49;;;;;;;6.93;2.88;;;;;;;12.51;75.76;100878.91;2080035;28;20164;-70
2022/10/05 04:48:21;;;;;;;6.50;2.90;;;;;;;12.50;75.84;100883.50;2079893;28;20056;-70
2022/10/05 04:49:42;;;;;;;4.47;2.40;;;;;;;12.51;75.98;100873.50;2061158;28;20053;-68
2022/10/05 04:51:29;;;;;;;6.68;2.20;;;;;;;12.53;75.73;100860.56;2058381;28;20050;-70
2022/10/05 04:52:47;;;;;;;7.93;2.50;;;;;;;12.57;75.78;100860.78;2027218;28;20052;-70
2022/10/05 04:54:08;;;;;;;6.07;2.30;;;;;;;12.55;75.71;100863.78;2065024;28;20045;-70
2022/10/05 04:55:34;;;;;;;7.80;2.47;;;;;;;12.56;75.65;100859.19;2058101;28;20030;-71
2022/10/05 04:57:21;;;;;;;4.43;2.60;;;;;;;12.57;75.43;100850.81;2074019;28;20053;-71
2022/10/05 04:58:44;;;;;;;8.65;2.53;;;;;;;12.59;75.45;100847.84;2071658;28;20041;-71
2022/10/05 05:00:21;;;;;;;6.22;2.55;;;;;;;12.56;75.34;100843.00;2063879;28;20043;-71
2022/10/05 05:01:47;;;;;;;9.20;2.88;;;;;;;12.53;75.37;100849.78;2065131;28;20076;-71
2022/10/05 05:03:28;;;;;;;4.35;2.50;;;;;;;12.52;75.23;100848.16;2059091;28;20042;-70
2022/10/05 05:04:48;;;;;;;5.40;2.42;;;;;;;12.54;75.14;100840.56;2066458;28;20037;-71
2022/10/05 05:06:04;;;;;;;8.13;2.65;;;;;;;12.57;75.17;100842.72;2072055;28;20041;-71
2022/10/05 05:07:14;;;;;;;7.38;2.60;;;;;;;12.61;75.17;100846.47;2062735;28;20410;-70
2022/10/05 05:08:26;;;;;;;4.53;2.55;;;;;;;12.60;75.17;100849.44;2048182;28;20047;-71
2022/10/05 05:10:06;;;;;;;7.03;3.05;;;;;;;12.61;75.32;100854.56;2057290;28;20045;-71
2022/10/05 05:11:40;;;;;;;6.65;2.47;;;;;;;12.62;75.17;100858.84;2059377;28;20034;-71
2022/10/05 05:12:55;;;;;;;4.97;2.50;;;;;;;12.65;75.09;100863.69;2034969;29;20686;-70
2022/10/05 05:14:02;;;;;;;8.85;2.53;;;;;;;12.66;75.13;100870.69;2066768;28;20030;-71
2022/10/05 05:15:24;;;;;;;5.32;2.45;;;;;;;12.67;75.04;100875.00;2062172;28;20526;-70
2022/10/05 05:17:02;;;;;;;3.90;2.35;;;;;;;12.69;74.91;100883.59;2058884;28;20059;-71
2022/10/05 05:18:17;;;;;;;13.27;2.97;;;;;;;12.66;74.88;100889.56;2067622;28;20049;-70
2022/10/05 05:19:50;;;;;;;8.55;2.60;;;;;;;12.62;75.01;100880.44;2063782;28;20057;-70
2022/10/05 05:21:18;;;;;;;5.70;2.97;;;;;;;12.61;75.17;100894.19;2062017;28;20136;-71
2022/10/05 05:23:00;;;;;;;5.72;2.60;;;;;;;12.62;75.48;100890.44;2062106;28;20042;-72
2022/10/05 05:24:12;;;;;;;;;;;;;;;12.62;75.36;100891.22;2068125;28;20046;-70
2022/10/05 05:25:58;;;;;;;7.53;2.88;;;;;;;12.64;75.34;100883.66;2064226;28;19929;-71
2022/10/05 05:27:30;;;;;;;3.88;2.50;;;;;;;12.67;75.39;100887.66;2067283;28;20034;-71
2022/10/05 05:29:07;;;;;;;7.85;2.65;;;;;;;12.70;75.36;100871.75;2080613;28;20045;-70
2022/10/05 05:30:21;;;;;;;4.68;2.40;;;;;;;12.74;75.15;100882.75;2056239;28;20046;-70
2022/10/05 05:31:49;;;;;;;9.32;2.67;;;;;;;12.72;74.98;100887.63;2050839;28;20043;-71
2022/10/05 05:33:02;;;;;;;6.88;2.60;;;;;;;12.74;75.09;100888.97;2065893;28;20409;-71
2022/10/05 05:34:30;;;;;;;7.10;2.72;;;;;;;12.75;74.97;100895.16;2068915;28;20064;-72
2022/10/05 05:35:57;;;;;;;7.68;2.55;;;;;;;12.78;74.78;100899.97;2084257;28;20045;-72
2022/10/05 05:37:04;;;;;;;4.30;2.50;;;;;;;12.79;74.79;100887.28;2081529;28;20052;-71
2022/10/05 05:38:17;;;;;;;7.55;3.70;;;;;;;12.81;74.84;100882.41;2073144;28;20049;-71
2022/10/05 05:39:38;;;;;;;4.55;2.28;;;;;;;12.82;74.70;100889.41;2080709;28;20049;-72
2022/10/05 05:40:48;;;;;;;6.97;2.40;;;;;;;12.84;74.57;100888.06;2079758;28;20528;-68
2022/10/05 05:42:01;;;;;;;7.20;2.40;;;;;;;12.81;74.65;100885.13;2072107;28;20050;-71
2022/10/05 05:43:23;;;;;;;5.68;2.47;;;;;;;12.82;74.45;100878.63;2059654;28;20087;-71
2022/10/05 05:44:35;;;;;;;9.75;2.75;;;;;;;12.83;74.58;100881.06;2065982;28;20038;-70
2022/10/05 05:45:56;;;;;;;9.02;2.50;;;;;;;12.89;74.63;100876.38;2073403;28;20068;-71
2022/10/05 05:47:12;;;;;;;6.15;2.70;;;;;;;12.98;74.48;100863.88;2066356;28;20430;-71
2022/10/05 05:48:28;;;;;;;4.15;2.50;;;;;;;12.95;74.25;100864.44;2060880;28;20534;-70
2022/10/05 05:50:21;;;;;;;6.18;2.83;;;;;;;13.05;73.79;100863.53;2068635;28;20050;-71
2022/10/05 05:51:41;;;;;;;4.10;2.50;;;;;;;13.17;73.41;100864.72;2087376;28;20504;-70
2022/10/05 05:52:48;;;;;;;;;;;;;;;13.26;73.18;100864.94;2080184;28;20410;-71
2022/10/05 05:54:15;;;;;;;6.95;2.63;;;;;;;13.35;72.91;100874.00;2066637;28;19921;-72
2022/10/05 05:55:24;;;;;;;8.07;2.55;;;;;;;13.34;72.99;100877.00;2067816;28;20461;-70
2022/10/05 05:56:33;;;;;;;6.15;2.75;;;;;;;13.50;72.67;100877.63;2067487;28;20054;-71
2022/10/05 05:57:45;;;;;;;7.45;2.70;;;;;;;13.68;72.20;100885.75;2073577;28;20049;-70
2022/10/05 05:58:52;;;;;;;3.72;2.40;;;;;;;13.78;71.92;100886.69;2072687;28;20042;-70
2022/10/05 06:00:09;;;;;;;6.63;2.72;;;;;;;13.97;71.36;100882.09;2065557;28;20075;-70
2022/10/05 06:01:45;;;;;;;6.38;3.00;;;;;;;14.11;70.46;100882.94;2061771;28;20502;-70
2022/10/05 06:03:10;;;;;;;5.72;2.85;;;;;;;14.19;70.38;100875.28;2061803;28;20053;-71
2022/10/05 06:04:35;;;;;;;6.50;2.58;;;;;;;14.31;69.76;100865.59;2080893;28;20037;-71
2022/10/05 06:06:00;;;;;;;3.78;2.20;;;;;;;14.40;69.53;100868.41;2075756;28;20056;-70
2022/10/05 06:07:05;;;;;;;7.75;3.05;;;;;;;14.36;69.30;100867.41;2063342;28;20042;-70
2022/10/05 06:08:21;;;;;;;7.68;2.78;;;;;;;14.40;69.27;100860.31;2064418;28;20055;-71
2022/10/05 06:09:34;;;;;;;8.05;2.95;;;;;;;14.46;68.92;100861.81;2071338;28;20046;-70
2022/10/05 06:11:15;;;;;;;8.43;3.15;;;;;;;14.49;68.95;100858.53;2066493;28;20121;-70